Aguascalientes, Mexico

8:49 PM CDT on August 18, 2017 (GMT -0500)
Jesus Teran International | | Change Station

Elev 6109 ft 21.71 °N, 102.32 °W | Updated 1 hour ago

Mostly Cloudy
Mostly Cloudy
73 °F
Feels Like 73 °F
N
5
Wind Variable Wind from NW

Today
High -- | Low -- °F
--% Chance of Precip.
Yesterday
High -- | Low -- °F
Precip. -- in
Pressure 30.24 in
Visibility 12.0 miles
Clouds Scattered Clouds 4000 ft
Mostly Cloudy 21000 ft
Dew Point 57 °F
Humidity 57%
Rainfall 0.00 in
Snow Depth Not available.
7:28 AM 8:17 PM
Waning Crescent, 10% visible
METAR MMAS 190042Z 32004KT 12SM SCT040TCU BKN210 23/14 A3024 RMK 8/202 ISOL AC
Pressure 30.24 in
Visibility 12.0 miles
Clouds Scattered Clouds 4000 ft
Mostly Cloudy 21000 ft
Dew Point 57 °F
Humidity 57%
Rainfall 0.00 in
Snow Depth Not available.
7:28 AM 8:17 PM
Waning Crescent, 10% visible
METAR MMAS 190042Z 32004KT 12SM SCT040TCU BKN210 23/14 A3024 RMK 8/202 ISOL AC

Get Severe Weather Alerts

Thanks for signing up!

Be on the lookout for a verification email in your inbox.

You'll start receiving the daily forecast at 6 AM.

×

10-Day Weather Forecast

No radar image for this location.
×

Almanac

Astronomy

Aug. 18, 2017 Rise Set
Actual Time
Civil Twilight
Nautical Twilight
Astronomical Twilight
Moon
Length of Visible Light
Length of Day
Tomorrow will be .
, % of the Moon is Illuminated

Today's Extremes

Country Highs Country Lows

Community

WunderPhotos

Category 6

Welcome to Category 6. This is the collective home for Weather Underground's featured writeups by Dr. Jeff Masters (right), Bob Henson (left), Chris Burt, and other regular contributors.

Nearby

Air Quality

  Air Quality AQ Index Pollutant
Not available.

Snow Depth

Station Depth Elevation

Earthquake Activity

City Distance Mag. Time & Date
Minimum magnitude displayed is 2.5.

Coastal Water Temperatures

Place Temperature

Stations

Nearby Weather Stations

Station Location Temp. Windchill Dew Point Humidity Wind Precip. Elev Updated Type